Ana Sayfa
METAR-TAF:

METAR-TAF

Havaalanları :

Tri-City Airport

Parsons, Kansas, Amerika Birleşik Devletleri

Enlem: 37-19-40N, Boylam: 095-30-15W, yükseklik: 274 m

Güncel hava durumu gözlemi

Rapor saat 14:52 UTC de 38 dakika önce yapıldı.
Rüzgar güneydan 4 kt
Sıcaklık 24°C
Nem 69%
Basınç 1012 hPa
Görüş mesafesi: 16.1 km
Açık gökyüzü

METAR: KPPF 181452Z AUTO 19004KT 10SM CLR 24/18 A2987 RMK AO2 SLP108 T02440183 53009

Saat: 10:30 (15:30 UTC)


TAF: eksik

4.000'den fazla havaalanı için hava durumu gözlemleri ve tahminleri (METAR ve TAF raporları).

Kullanılabilir istasyonlar harita üzerinde sarı ve kırmızı noktalarla gösterilir.

İstasyonun adını görmek için fareyi noktanın üzerinde gezdirin.

Sonrasında hava gözlem ve tahminlerini görmek için tıklayın.

Haritayı değiştirmek için: yaklaştırmak için siyah artı işaretli yeşil düğmeye ve uzaklaştırmak için de eksi işaretli düğmeye hızla tıklayın; bitişik haritalar için yeşil okları kullanın.


METAR-TAF: